sensor_id;sensor_type;location;lat;lon;timestamp;P1;durP1;ratioP1;P2;durP2;ratioP2
4232;SDS011;2130;48.472;11.934;2022-11-25T00:01:03;2.80;;;1.63;;
4232;SDS011;2130;48.472;11.934;2022-11-25T00:03:32;3.53;;;2.20;;
4232;SDS011;2130;48.472;11.934;2022-11-25T00:06:12;2.13;;;1.30;;
4232;SDS011;2130;48.472;11.934;2022-11-25T00:08:42;3.27;;;1.67;;
4232;SDS011;2130;48.472;11.934;2022-11-25T00:11:12;2.40;;;1.50;;
4232;SDS011;2130;48.472;11.934;2022-11-25T00:13:41;3.10;;;1.77;;
4232;SDS011;2130;48.472;11.934;2022-11-25T00:16:10;2.80;;;1.20;;
4232;SDS011;2130;48.472;11.934;2022-11-25T00:18:42;3.03;;;1.53;;
4232;SDS011;2130;48.472;11.934;2022-11-25T00:21:13;3.53;;;1.73;;
4232;SDS011;2130;48.472;11.934;2022-11-25T00:23:42;2.63;;;1.73;;
4232;SDS011;2130;48.472;11.934;2022-11-25T00:26:11;3.33;;;1.80;;
4232;SDS011;2130;48.472;11.934;2022-11-25T00:28:41;2.40;;;1.30;;
4232;SDS011;2130;48.472;11.934;2022-11-25T00:31:10;3.23;;;1.57;;
4232;SDS011;2130;48.472;11.934;2022-11-25T00:33:40;3.40;;;2.07;;
4232;SDS011;2130;48.472;11.934;2022-11-25T00:36:13;3.30;;;1.50;;
4232;SDS011;2130;48.472;11.934;2022-11-25T00:38:43;2.77;;;1.40;;
4232;SDS011;2130;48.472;11.934;2022-11-25T00:41:11;2.23;;;1.40;;
4232;SDS011;2130;48.472;11.934;2022-11-25T00:43:58;3.30;;;1.90;;
4232;SDS011;2130;48.472;11.934;2022-11-25T00:46:43;2.50;;;1.50;;
4232;SDS011;2130;48.472;11.934;2022-11-25T00:49:12;2.70;;;1.60;;
4232;SDS011;2130;48.472;11.934;2022-11-25T00:51:41;2.50;;;1.53;;
4232;SDS011;2130;48.472;11.934;2022-11-25T00:54:09;4.30;;;1.73;;
4232;SDS011;2130;48.472;11.934;2022-11-25T00:56:37;3.17;;;1.70;;
4232;SDS011;2130;48.472;11.934;2022-11-25T00:59:06;2.37;;;1.40;;
4232;SDS011;2130;48.472;11.934;2022-11-25T01:01:37;3.30;;;1.57;;
4232;SDS011;2130;48.472;11.934;2022-11-25T01:04:05;3.60;;;1.97;;
4232;SDS011;2130;48.472;11.934;2022-11-25T01:06:33;3.33;;;1.90;;
4232;SDS011;2130;48.472;11.934;2022-11-25T01:09:03;2.40;;;1.57;;
4232;SDS011;2130;48.472;11.934;2022-11-25T01:11:32;2.47;;;1.57;;
4232;SDS011;2130;48.472;11.934;2022-11-25T01:14:00;2.97;;;1.63;;
4232;SDS011;2130;48.472;11.934;2022-11-25T01:16:28;3.57;;;1.60;;
4232;SDS011;2130;48.472;11.934;2022-11-25T01:18:57;3.57;;;1.50;;
4232;SDS011;2130;48.472;11.934;2022-11-25T01:21:26;2.63;;;1.73;;
4232;SDS011;2130;48.472;11.934;2022-11-25T01:23:55;2.87;;;1.50;;
4232;SDS011;2130;48.472;11.934;2022-11-25T01:26:27;3.43;;;1.60;;
4232;SDS011;2130;48.472;11.934;2022-11-25T01:28:56;3.23;;;1.80;;
4232;SDS011;2130;48.472;11.934;2022-11-25T01:31:26;3.57;;;1.50;;
4232;SDS011;2130;48.472;11.934;2022-11-25T01:33:55;3.63;;;1.70;;
4232;SDS011;2130;48.472;11.934;2022-11-25T01:36:25;5.23;;;1.33;;
4232;SDS011;2130;48.472;11.934;2022-11-25T01:38:54;4.23;;;1.83;;
4232;SDS011;2130;48.472;11.934;2022-11-25T01:41:24;3.20;;;1.80;;
4232;SDS011;2130;48.472;11.934;2022-11-25T01:44:08;3.40;;;1.60;;
4232;SDS011;2130;48.472;11.934;2022-11-25T01:46:54;3.20;;;1.50;;
4232;SDS011;2130;48.472;11.934;2022-11-25T01:49:29;4.33;;;1.50;;
4232;SDS011;2130;48.472;11.934;2022-11-25T01:52:01;5.63;;;1.80;;
4232;SDS011;2130;48.472;11.934;2022-11-25T01:57:27;3.00;;;1.63;;
4232;SDS011;2130;48.472;11.934;2022-11-25T01:59:59;3.80;;;1.83;;
4232;SDS011;2130;48.472;11.934;2022-11-25T02:02:30;3.53;;;1.50;;
4232;SDS011;2130;48.472;11.934;2022-11-25T02:04:58;2.90;;;1.73;;
4232;SDS011;2130;48.472;11.934;2022-11-25T02:07:29;4.10;;;1.80;;
4232;SDS011;2130;48.472;11.934;2022-11-25T02:09:59;3.33;;;1.80;;
4232;SDS011;2130;48.472;11.934;2022-11-25T02:12:29;5.07;;;2.23;;
4232;SDS011;2130;48.472;11.934;2022-11-25T02:15:00;5.30;;;3.10;;
4232;SDS011;2130;48.472;11.934;2022-11-25T02:17:28;4.40;;;2.27;;
4232;SDS011;2130;48.472;11.934;2022-11-25T02:19:59;3.83;;;1.40;;
4232;SDS011;2130;48.472;11.934;2022-11-25T02:22:33;3.97;;;1.50;;
4232;SDS011;2130;48.472;11.934;2022-11-25T02:25:11;4.27;;;1.97;;
4232;SDS011;2130;48.472;11.934;2022-11-25T02:27:42;4.03;;;1.60;;
4232;SDS011;2130;48.472;11.934;2022-11-25T02:30:11;5.93;;;1.90;;
4232;SDS011;2130;48.472;11.934;2022-11-25T02:32:41;3.70;;;1.73;;
4232;SDS011;2130;48.472;11.934;2022-11-25T02:35:26;2.47;;;1.70;;
4232;SDS011;2130;48.472;11.934;2022-11-25T02:37:58;5.30;;;1.50;;
4232;SDS011;2130;48.472;11.934;2022-11-25T02:40:39;3.50;;;2.00;;
4232;SDS011;2130;48.472;11.934;2022-11-25T02:43:11;3.13;;;1.50;;
4232;SDS011;2130;48.472;11.934;2022-11-25T02:45:42;3.70;;;1.60;;
4232;SDS011;2130;48.472;11.934;2022-11-25T02:48:14;3.67;;;1.57;;
4232;SDS011;2130;48.472;11.934;2022-11-25T02:50:42;3.77;;;1.70;;
4232;SDS011;2130;48.472;11.934;2022-11-25T02:53:12;4.03;;;1.90;;
4232;SDS011;2130;48.472;11.934;2022-11-25T02:55:42;6.23;;;2.00;;
4232;SDS011;2130;48.472;11.934;2022-11-25T02:58:10;3.43;;;1.33;;
4232;SDS011;2130;48.472;11.934;2022-11-25T03:00:40;3.90;;;1.77;;
4232;SDS011;2130;48.472;11.934;2022-11-25T03:03:09;3.57;;;1.70;;
4232;SDS011;2130;48.472;11.934;2022-11-25T03:05:37;6.23;;;2.77;;
4232;SDS011;2130;48.472;11.934;2022-11-25T03:08:06;3.83;;;1.80;;
4232;SDS011;2130;48.472;11.934;2022-11-25T03:10:35;3.17;;;1.50;;
4232;SDS011;2130;48.472;11.934;2022-11-25T03:13:06;3.83;;;1.40;;
4232;SDS011;2130;48.472;11.934;2022-11-25T03:15:38;3.73;;;1.53;;
4232;SDS011;2130;48.472;11.934;2022-11-25T03:18:06;3.00;;;1.60;;
4232;SDS011;2130;48.472;11.934;2022-11-25T03:20:34;2.90;;;1.37;;
4232;SDS011;2130;48.472;11.934;2022-11-25T03:23:03;3.23;;;1.50;;
4232;SDS011;2130;48.472;11.934;2022-11-25T03:25:33;4.03;;;1.40;;
4232;SDS011;2130;48.472;11.934;2022-11-25T03:28:02;3.23;;;1.40;;
4232;SDS011;2130;48.472;11.934;2022-11-25T03:30:32;3.50;;;1.70;;
4232;SDS011;2130;48.472;11.934;2022-11-25T03:33:02;3.93;;;2.10;;
4232;SDS011;2130;48.472;11.934;2022-11-25T03:35:30;4.13;;;1.70;;
4232;SDS011;2130;48.472;11.934;2022-11-25T03:37:58;3.43;;;1.60;;
4232;SDS011;2130;48.472;11.934;2022-11-25T03:40:29;5.27;;;2.10;;
4232;SDS011;2130;48.472;11.934;2022-11-25T03:42:57;4.83;;;2.00;;
4232;SDS011;2130;48.472;11.934;2022-11-25T03:45:27;3.50;;;1.73;;
4232;SDS011;2130;48.472;11.934;2022-11-25T03:47:58;3.10;;;1.60;;
4232;SDS011;2130;48.472;11.934;2022-11-25T03:50:26;3.80;;;1.40;;
4232;SDS011;2130;48.472;11.934;2022-11-25T03:52:54;3.07;;;1.60;;
4232;SDS011;2130;48.472;11.934;2022-11-25T03:55:23;6.00;;;2.07;;
4232;SDS011;2130;48.472;11.934;2022-11-25T03:57:53;3.97;;;1.70;;
4232;SDS011;2130;48.472;11.934;2022-11-25T04:00:23;3.53;;;1.50;;
4232;SDS011;2130;48.472;11.934;2022-11-25T04:03:02;3.00;;;1.57;;
4232;SDS011;2130;48.472;11.934;2022-11-25T04:05:31;3.00;;;1.40;;
4232;SDS011;2130;48.472;11.934;2022-11-25T04:08:04;2.63;;;1.00;;
4232;SDS011;2130;48.472;11.934;2022-11-25T04:10:33;4.00;;;1.60;;
4232;SDS011;2130;48.472;11.934;2022-11-25T04:13:03;3.43;;;1.33;;
4232;SDS011;2130;48.472;11.934;2022-11-25T04:15:34;2.60;;;1.20;;
4232;SDS011;2130;48.472;11.934;2022-11-25T04:18:05;3.83;;;1.50;;
4232;SDS011;2130;48.472;11.934;2022-11-25T04:20:33;2.80;;;1.37;;
4232;SDS011;2130;48.472;11.934;2022-11-25T04:23:04;6.00;;;1.63;;
4232;SDS011;2130;48.472;11.934;2022-11-25T04:25:37;3.60;;;1.30;;
4232;SDS011;2130;48.472;11.934;2022-11-25T04:28:10;2.90;;;1.17;;
4232;SDS011;2130;48.472;11.934;2022-11-25T04:30:39;3.40;;;1.50;;
4232;SDS011;2130;48.472;11.934;2022-11-25T04:33:09;5.10;;;1.70;;
4232;SDS011;2130;48.472;11.934;2022-11-25T04:35:37;4.33;;;1.60;;
4232;SDS011;2130;48.472;11.934;2022-11-25T04:38:06;3.70;;;1.77;;
4232;SDS011;2130;48.472;11.934;2022-11-25T04:40:36;3.83;;;1.50;;
4232;SDS011;2130;48.472;11.934;2022-11-25T04:43:17;4.23;;;1.60;;
4232;SDS011;2130;48.472;11.934;2022-11-25T04:45:54;3.20;;;1.47;;
4232;SDS011;2130;48.472;11.934;2022-11-25T04:48:42;3.83;;;1.17;;
4232;SDS011;2130;48.472;11.934;2022-11-25T04:51:10;3.47;;;1.33;;
4232;SDS011;2130;48.472;11.934;2022-11-25T04:53:38;3.00;;;1.20;;
4232;SDS011;2130;48.472;11.934;2022-11-25T04:56:08;3.00;;;1.40;;
4232;SDS011;2130;48.472;11.934;2022-11-25T04:58:41;4.67;;;1.60;;
4232;SDS011;2130;48.472;11.934;2022-11-25T05:01:27;5.60;;;1.87;;
4232;SDS011;2130;48.472;11.934;2022-11-25T05:04:08;5.10;;;1.83;;
4232;SDS011;2130;48.472;11.934;2022-11-25T05:06:37;4.47;;;1.53;;
4232;SDS011;2130;48.472;11.934;2022-11-25T05:09:06;4.97;;;2.30;;
4232;SDS011;2130;48.472;11.934;2022-11-25T05:11:38;5.20;;;2.40;;
4232;SDS011;2130;48.472;11.934;2022-11-25T05:14:06;5.70;;;2.47;;
4232;SDS011;2130;48.472;11.934;2022-11-25T05:16:34;4.03;;;2.00;;
4232;SDS011;2130;48.472;11.934;2022-11-25T05:19:02;3.50;;;1.80;;
4232;SDS011;2130;48.472;11.934;2022-11-25T05:21:32;3.77;;;1.67;;
4232;SDS011;2130;48.472;11.934;2022-11-25T05:24:00;3.73;;;1.73;;
4232;SDS011;2130;48.472;11.934;2022-11-25T05:26:29;4.57;;;2.10;;
4232;SDS011;2130;48.472;11.934;2022-11-25T05:28:58;6.33;;;2.27;;
4232;SDS011;2130;48.472;11.934;2022-11-25T05:31:29;6.13;;;3.17;;
4232;SDS011;2130;48.472;11.934;2022-11-25T05:33:58;7.70;;;3.00;;
4232;SDS011;2130;48.472;11.934;2022-11-25T05:36:28;5.10;;;2.70;;
4232;SDS011;2130;48.472;11.934;2022-11-25T05:38:57;5.30;;;2.27;;
4232;SDS011;2130;48.472;11.934;2022-11-25T05:41:42;4.03;;;2.10;;
4232;SDS011;2130;48.472;11.934;2022-11-25T05:44:11;5.10;;;2.20;;
4232;SDS011;2130;48.472;11.934;2022-11-25T05:46:45;6.03;;;2.40;;
4232;SDS011;2130;48.472;11.934;2022-11-25T05:49:15;5.40;;;1.93;;
4232;SDS011;2130;48.472;11.934;2022-11-25T05:51:44;5.47;;;2.00;;
4232;SDS011;2130;48.472;11.934;2022-11-25T05:54:13;4.57;;;1.93;;
4232;SDS011;2130;48.472;11.934;2022-11-25T05:56:42;5.97;;;2.00;;
4232;SDS011;2130;48.472;11.934;2022-11-25T05:59:36;6.60;;;3.00;;
4232;SDS011;2130;48.472;11.934;2022-11-25T06:02:19;6.70;;;2.70;;
4232;SDS011;2130;48.472;11.934;2022-11-25T06:04:51;5.20;;;2.30;;
4232;SDS011;2130;48.472;11.934;2022-11-25T06:07:19;5.03;;;2.17;;
4232;SDS011;2130;48.472;11.934;2022-11-25T06:09:50;4.70;;;2.50;;
4232;SDS011;2130;48.472;11.934;2022-11-25T06:12:19;5.97;;;2.43;;
4232;SDS011;2130;48.472;11.934;2022-11-25T06:14:49;4.47;;;2.20;;
4232;SDS011;2130;48.472;11.934;2022-11-25T06:17:17;4.53;;;1.97;;
4232;SDS011;2130;48.472;11.934;2022-11-25T06:19:51;5.93;;;2.07;;
4232;SDS011;2130;48.472;11.934;2022-11-25T06:22:19;4.20;;;2.00;;
4232;SDS011;2130;48.472;11.934;2022-11-25T06:24:49;4.17;;;1.90;;
4232;SDS011;2130;48.472;11.934;2022-11-25T06:27:28;5.13;;;2.33;;
4232;SDS011;2130;48.472;11.934;2022-11-25T06:30:17;4.83;;;2.03;;
4232;SDS011;2130;48.472;11.934;2022-11-25T06:32:58;5.40;;;2.10;;
4232;SDS011;2130;48.472;11.934;2022-11-25T06:35:26;5.53;;;2.10;;
4232;SDS011;2130;48.472;11.934;2022-11-25T06:37:57;3.80;;;1.97;;
4232;SDS011;2130;48.472;11.934;2022-11-25T06:40:26;4.27;;;1.70;;
4232;SDS011;2130;48.472;11.934;2022-11-25T06:42:54;4.60;;;2.17;;
4232;SDS011;2130;48.472;11.934;2022-11-25T06:45:22;4.30;;;2.40;;
4232;SDS011;2130;48.472;11.934;2022-11-25T06:47:50;6.00;;;2.40;;
4232;SDS011;2130;48.472;11.934;2022-11-25T06:50:19;4.40;;;2.30;;
4232;SDS011;2130;48.472;11.934;2022-11-25T06:52:47;6.50;;;2.40;;
4232;SDS011;2130;48.472;11.934;2022-11-25T06:55:15;4.10;;;1.73;;
4232;SDS011;2130;48.472;11.934;2022-11-25T06:57:44;3.80;;;1.73;;
4232;SDS011;2130;48.472;11.934;2022-11-25T07:00:13;5.80;;;2.00;;
4232;SDS011;2130;48.472;11.934;2022-11-25T07:02:42;5.33;;;2.40;;
4232;SDS011;2130;48.472;11.934;2022-11-25T07:05:14;4.20;;;1.83;;
4232;SDS011;2130;48.472;11.934;2022-11-25T07:07:42;4.23;;;1.63;;
4232;SDS011;2130;48.472;11.934;2022-11-25T07:10:10;5.13;;;1.90;;
4232;SDS011;2130;48.472;11.934;2022-11-25T07:12:38;4.63;;;1.70;;
4232;SDS011;2130;48.472;11.934;2022-11-25T07:15:08;3.43;;;1.70;;
4232;SDS011;2130;48.472;11.934;2022-11-25T07:17:37;4.60;;;1.90;;
4232;SDS011;2130;48.472;11.934;2022-11-25T07:20:06;4.93;;;1.80;;
4232;SDS011;2130;48.472;11.934;2022-11-25T07:22:34;4.90;;;2.40;;
4232;SDS011;2130;48.472;11.934;2022-11-25T07:25:03;4.50;;;1.73;;
4232;SDS011;2130;48.472;11.934;2022-11-25T07:27:31;4.27;;;1.90;;
4232;SDS011;2130;48.472;11.934;2022-11-25T07:29:59;6.07;;;2.43;;
4232;SDS011;2130;48.472;11.934;2022-11-25T07:32:49;4.70;;;2.00;;
4232;SDS011;2130;48.472;11.934;2022-11-25T07:35:17;7.63;;;2.50;;
4232;SDS011;2130;48.472;11.934;2022-11-25T07:37:45;3.83;;;1.73;;
4232;SDS011;2130;48.472;11.934;2022-11-25T07:40:13;7.93;;;2.17;;
4232;SDS011;2130;48.472;11.934;2022-11-25T07:42:41;4.73;;;2.10;;
4232;SDS011;2130;48.472;11.934;2022-11-25T07:45:09;4.17;;;2.30;;
4232;SDS011;2130;48.472;11.934;2022-11-25T07:47:40;5.57;;;2.10;;
4232;SDS011;2130;48.472;11.934;2022-11-25T07:50:10;5.50;;;1.80;;
4232;SDS011;2130;48.472;11.934;2022-11-25T07:52:38;3.77;;;1.90;;
4232;SDS011;2130;48.472;11.934;2022-11-25T07:55:07;4.33;;;1.70;;
4232;SDS011;2130;48.472;11.934;2022-11-25T07:57:36;3.47;;;1.70;;
4232;SDS011;2130;48.472;11.934;2022-11-25T08:00:05;3.70;;;1.70;;
4232;SDS011;2130;48.472;11.934;2022-11-25T08:02:39;7.60;;;1.90;;
4232;SDS011;2130;48.472;11.934;2022-11-25T08:05:13;5.87;;;2.53;;
4232;SDS011;2130;48.472;11.934;2022-11-25T08:07:41;6.63;;;2.07;;
4232;SDS011;2130;48.472;11.934;2022-11-25T08:10:09;5.37;;;2.40;;
4232;SDS011;2130;48.472;11.934;2022-11-25T08:12:37;6.50;;;3.40;;
4232;SDS011;2130;48.472;11.934;2022-11-25T08:15:06;4.47;;;2.00;;
4232;SDS011;2130;48.472;11.934;2022-11-25T08:17:34;5.90;;;2.83;;
4232;SDS011;2130;48.472;11.934;2022-11-25T08:20:03;5.83;;;2.63;;
4232;SDS011;2130;48.472;11.934;2022-11-25T08:22:33;6.23;;;2.83;;
4232;SDS011;2130;48.472;11.934;2022-11-25T08:25:01;7.77;;;3.80;;
4232;SDS011;2130;48.472;11.934;2022-11-25T08:27:29;5.23;;;2.60;;
4232;SDS011;2130;48.472;11.934;2022-11-25T08:29:57;5.47;;;2.90;;
4232;SDS011;2130;48.472;11.934;2022-11-25T08:32:25;4.13;;;2.53;;
4232;SDS011;2130;48.472;11.934;2022-11-25T08:34:53;4.53;;;2.50;;
4232;SDS011;2130;48.472;11.934;2022-11-25T08:37:22;4.60;;;2.47;;
4232;SDS011;2130;48.472;11.934;2022-11-25T08:39:52;3.27;;;2.10;;
4232;SDS011;2130;48.472;11.934;2022-11-25T08:42:20;4.93;;;3.37;;
4232;SDS011;2130;48.472;11.934;2022-11-25T08:44:50;5.63;;;2.60;;
4232;SDS011;2130;48.472;11.934;2022-11-25T08:47:19;4.80;;;2.30;;
4232;SDS011;2130;48.472;11.934;2022-11-25T08:49:49;4.10;;;2.73;;
4232;SDS011;2130;48.472;11.934;2022-11-25T08:52:17;4.93;;;2.40;;
4232;SDS011;2130;48.472;11.934;2022-11-25T08:54:46;7.40;;;2.97;;
4232;SDS011;2130;48.472;11.934;2022-11-25T08:57:15;3.83;;;2.60;;
4232;SDS011;2130;48.472;11.934;2022-11-25T08:59:43;4.13;;;2.37;;
4232;SDS011;2130;48.472;11.934;2022-11-25T09:02:12;3.80;;;2.50;;
4232;SDS011;2130;48.472;11.934;2022-11-25T09:04:42;4.13;;;2.60;;
4232;SDS011;2130;48.472;11.934;2022-11-25T09:07:11;4.20;;;2.33;;
4232;SDS011;2130;48.472;11.934;2022-11-25T09:09:39;4.50;;;2.53;;
4232;SDS011;2130;48.472;11.934;2022-11-25T09:12:07;5.03;;;2.90;;
4232;SDS011;2130;48.472;11.934;2022-11-25T09:14:36;9.13;;;2.90;;
4232;SDS011;2130;48.472;11.934;2022-11-25T09:17:07;7.30;;;3.33;;
4232;SDS011;2130;48.472;11.934;2022-11-25T09:19:37;4.73;;;2.60;;
4232;SDS011;2130;48.472;11.934;2022-11-25T09:22:05;4.90;;;2.60;;
4232;SDS011;2130;48.472;11.934;2022-11-25T09:24:33;5.10;;;2.80;;
4232;SDS011;2130;48.472;11.934;2022-11-25T09:27:02;3.53;;;2.63;;
4232;SDS011;2130;48.472;11.934;2022-11-25T09:29:30;3.53;;;2.20;;
4232;SDS011;2130;48.472;11.934;2022-11-25T09:31:59;4.40;;;2.53;;
4232;SDS011;2130;48.472;11.934;2022-11-25T09:34:27;3.53;;;2.33;;
4232;SDS011;2130;48.472;11.934;2022-11-25T09:36:55;5.47;;;3.53;;
4232;SDS011;2130;48.472;11.934;2022-11-25T09:39:23;4.13;;;3.70;;
4232;SDS011;2130;48.472;11.934;2022-11-25T09:42:01;5.57;;;2.57;;
4232;SDS011;2130;48.472;11.934;2022-11-25T09:45:00;3.73;;;2.57;;
4232;SDS011;2130;48.472;11.934;2022-11-25T09:47:55;2.73;;;1.93;;
4232;SDS011;2130;48.472;11.934;2022-11-25T09:50:29;4.80;;;2.40;;
4232;SDS011;2130;48.472;11.934;2022-11-25T09:53:04;3.57;;;2.00;;
4232;SDS011;2130;48.472;11.934;2022-11-25T09:55:38;3.60;;;2.20;;
4232;SDS011;2130;48.472;11.934;2022-11-25T09:58:14;5.00;;;2.60;;
4232;SDS011;2130;48.472;11.934;2022-11-25T10:00:46;5.73;;;2.50;;
4232;SDS011;2130;48.472;11.934;2022-11-25T10:03:20;3.67;;;2.67;;
4232;SDS011;2130;48.472;11.934;2022-11-25T10:06:00;4.70;;;2.67;;
4232;SDS011;2130;48.472;11.934;2022-11-25T10:08:31;3.70;;;2.40;;
4232;SDS011;2130;48.472;11.934;2022-11-25T10:11:06;4.63;;;2.57;;
4232;SDS011;2130;48.472;11.934;2022-11-25T10:13:44;3.47;;;2.67;;
4232;SDS011;2130;48.472;11.934;2022-11-25T10:16:17;3.70;;;2.43;;
4232;SDS011;2130;48.472;11.934;2022-11-25T10:18:55;3.70;;;2.50;;
4232;SDS011;2130;48.472;11.934;2022-11-25T10:21:26;3.00;;;2.07;;
4232;SDS011;2130;48.472;11.934;2022-11-25T10:23:55;4.10;;;2.30;;
4232;SDS011;2130;48.472;11.934;2022-11-25T10:26:26;4.90;;;2.53;;
4232;SDS011;2130;48.472;11.934;2022-11-25T10:29:02;5.87;;;2.70;;
4232;SDS011;2130;48.472;11.934;2022-11-25T10:31:43;5.37;;;2.60;;
4232;SDS011;2130;48.472;11.934;2022-11-25T10:34:14;2.87;;;1.73;;
4232;SDS011;2130;48.472;11.934;2022-11-25T10:36:47;2.17;;;1.60;;
4232;SDS011;2130;48.472;11.934;2022-11-25T10:39:17;2.50;;;2.20;;
4232;SDS011;2130;48.472;11.934;2022-11-25T10:41:51;2.93;;;1.90;;
4232;SDS011;2130;48.472;11.934;2022-11-25T10:44:23;2.70;;;1.80;;
4232;SDS011;2130;48.472;11.934;2022-11-25T10:46:55;2.30;;;1.97;;
4232;SDS011;2130;48.472;11.934;2022-11-25T10:49:49;2.30;;;1.97;;
4232;SDS011;2130;48.472;11.934;2022-11-25T10:52:25;3.73;;;2.57;;
4232;SDS011;2130;48.472;11.934;2022-11-25T10:54:56;2.57;;;2.00;;
4232;SDS011;2130;48.472;11.934;2022-11-25T10:57:25;3.83;;;2.10;;
4232;SDS011;2130;48.472;11.934;2022-11-25T10:59:56;4.77;;;2.37;;
4232;SDS011;2130;48.472;11.934;2022-11-25T11:02:27;2.67;;;1.73;;
4232;SDS011;2130;48.472;11.934;2022-11-25T11:04:58;3.20;;;1.80;;
4232;SDS011;2130;48.472;11.934;2022-11-25T11:07:29;2.07;;;1.40;;
4232;SDS011;2130;48.472;11.934;2022-11-25T11:10:11;2.30;;;1.67;;
4232;SDS011;2130;48.472;11.934;2022-11-25T11:12:49;2.10;;;1.33;;
4232;SDS011;2130;48.472;11.934;2022-11-25T11:15:22;1.53;;;1.20;;
4232;SDS011;2130;48.472;11.934;2022-11-25T11:17:51;1.20;;;1.00;;
4232;SDS011;2130;48.472;11.934;2022-11-25T11:20:22;1.40;;;1.23;;
4232;SDS011;2130;48.472;11.934;2022-11-25T11:22:54;1.43;;;1.20;;
4232;SDS011;2130;48.472;11.934;2022-11-25T11:25:31;2.00;;;1.60;;
4232;SDS011;2130;48.472;11.934;2022-11-25T11:28:00;1.50;;;1.20;;
4232;SDS011;2130;48.472;11.934;2022-11-25T11:30:29;1.50;;;1.40;;
4232;SDS011;2130;48.472;11.934;2022-11-25T11:33:03;3.20;;;1.80;;
4232;SDS011;2130;48.472;11.934;2022-11-25T11:35:46;1.40;;;1.20;;
4232;SDS011;2130;48.472;11.934;2022-11-25T11:38:28;1.20;;;1.03;;
4232;SDS011;2130;48.472;11.934;2022-11-25T11:41:03;1.50;;;1.30;;
4232;SDS011;2130;48.472;11.934;2022-11-25T11:43:38;3.00;;;1.60;;
4232;SDS011;2130;48.472;11.934;2022-11-25T11:46:14;1.30;;;1.00;;
4232;SDS011;2130;48.472;11.934;2022-11-25T11:48:56;2.20;;;1.10;;
4232;SDS011;2130;48.472;11.934;2022-11-25T11:51:32;1.50;;;1.30;;
4232;SDS011;2130;48.472;11.934;2022-11-25T11:54:05;1.83;;;1.50;;
4232;SDS011;2130;48.472;11.934;2022-11-25T11:56:36;1.40;;;1.20;;
4232;SDS011;2130;48.472;11.934;2022-11-25T11:59:14;1.37;;;1.27;;
4232;SDS011;2130;48.472;11.934;2022-11-25T12:01:53;1.23;;;1.13;;
4232;SDS011;2130;48.472;11.934;2022-11-25T12:04:34;1.20;;;1.10;;
4232;SDS011;2130;48.472;11.934;2022-11-25T12:07:08;1.30;;;1.20;;
4232;SDS011;2130;48.472;11.934;2022-11-25T12:09:41;1.73;;;0.93;;
4232;SDS011;2130;48.472;11.934;2022-11-25T12:12:13;3.00;;;1.20;;
4232;SDS011;2130;48.472;11.934;2022-11-25T12:14:45;1.00;;;0.90;;
4232;SDS011;2130;48.472;11.934;2022-11-25T12:17:17;1.47;;;1.20;;
4232;SDS011;2130;48.472;11.934;2022-11-25T12:19:49;1.83;;;1.40;;
4232;SDS011;2130;48.472;11.934;2022-11-25T12:22:22;1.40;;;1.17;;
4232;SDS011;2130;48.472;11.934;2022-11-25T12:24:53;1.10;;;0.90;;
4232;SDS011;2130;48.472;11.934;2022-11-25T12:27:28;1.00;;;0.90;;
4232;SDS011;2130;48.472;11.934;2022-11-25T12:30:01;1.30;;;1.20;;
4232;SDS011;2130;48.472;11.934;2022-11-25T12:32:40;1.00;;;0.90;;
4232;SDS011;2130;48.472;11.934;2022-11-25T12:35:18;1.00;;;0.90;;
4232;SDS011;2130;48.472;11.934;2022-11-25T12:37:51;0.80;;;0.80;;
4232;SDS011;2130;48.472;11.934;2022-11-25T12:40:23;1.70;;;1.10;;
4232;SDS011;2130;48.472;11.934;2022-11-25T12:42:55;2.20;;;1.07;;
4232;SDS011;2130;48.472;11.934;2022-11-25T12:45:28;1.00;;;1.00;;
4232;SDS011;2130;48.472;11.934;2022-11-25T12:47:56;2.43;;;1.30;;
4232;SDS011;2130;48.472;11.934;2022-11-25T12:50:26;1.43;;;1.10;;
4232;SDS011;2130;48.472;11.934;2022-11-25T12:53:00;1.10;;;1.00;;
4232;SDS011;2130;48.472;11.934;2022-11-25T12:55:31;1.03;;;0.93;;
4232;SDS011;2130;48.472;11.934;2022-11-25T13:01:04;0.93;;;0.93;;
4232;SDS011;2130;48.472;11.934;2022-11-25T13:04:16;1.30;;;1.10;;
4232;SDS011;2130;48.472;11.934;2022-11-25T13:09:57;1.27;;;1.10;;
4232;SDS011;2130;48.472;11.934;2022-11-25T13:12:36;1.30;;;1.03;;
4232;SDS011;2130;48.472;11.934;2022-11-25T13:15:18;1.30;;;1.20;;
4232;SDS011;2130;48.472;11.934;2022-11-25T13:17:49;1.07;;;0.90;;
4232;SDS011;2130;48.472;11.934;2022-11-25T13:23:23;1.57;;;1.20;;
4232;SDS011;2130;48.472;11.934;2022-11-25T13:29:05;2.37;;;1.20;;
4232;SDS011;2130;48.472;11.934;2022-11-25T13:31:55;1.33;;;1.23;;
4232;SDS011;2130;48.472;11.934;2022-11-25T13:34:25;0.80;;;0.80;;
4232;SDS011;2130;48.472;11.934;2022-11-25T13:36:55;0.80;;;0.80;;
4232;SDS011;2130;48.472;11.934;2022-11-25T13:39:30;1.47;;;1.00;;
4232;SDS011;2130;48.472;11.934;2022-11-25T13:42:01;1.33;;;1.13;;
4232;SDS011;2130;48.472;11.934;2022-11-25T13:44:31;0.83;;;0.70;;
4232;SDS011;2130;48.472;11.934;2022-11-25T13:49:55;0.90;;;0.80;;
4232;SDS011;2130;48.472;11.934;2022-11-25T13:52:32;1.47;;;1.10;;
4232;SDS011;2130;48.472;11.934;2022-11-25T13:55:06;1.13;;;1.00;;
4232;SDS011;2130;48.472;11.934;2022-11-25T13:57:38;2.30;;;1.00;;
4232;SDS011;2130;48.472;11.934;2022-11-25T14:00:08;1.10;;;1.00;;
4232;SDS011;2130;48.472;11.934;2022-11-25T14:03:35;1.43;;;1.07;;
4232;SDS011;2130;48.472;11.934;2022-11-25T14:06:18;0.90;;;0.90;;
4232;SDS011;2130;48.472;11.934;2022-11-25T14:08:53;0.97;;;0.87;;
4232;SDS011;2130;48.472;11.934;2022-11-25T14:11:30;1.10;;;1.00;;
4232;SDS011;2130;48.472;11.934;2022-11-25T14:14:17;1.10;;;1.00;;
4232;SDS011;2130;48.472;11.934;2022-11-25T14:16:57;1.57;;;1.10;;
4232;SDS011;2130;48.472;11.934;2022-11-25T14:19:40;1.23;;;1.10;;
4232;SDS011;2130;48.472;11.934;2022-11-25T14:22:25;1.57;;;1.17;;
4232;SDS011;2130;48.472;11.934;2022-11-25T14:25:18;1.53;;;1.43;;
4232;SDS011;2130;48.472;11.934;2022-11-25T14:27:49;1.67;;;1.40;;
4232;SDS011;2130;48.472;11.934;2022-11-25T14:30:20;4.20;;;1.60;;
4232;SDS011;2130;48.472;11.934;2022-11-25T14:32:49;2.20;;;1.50;;
4232;SDS011;2130;48.472;11.934;2022-11-25T14:35:25;3.50;;;1.37;;
4232;SDS011;2130;48.472;11.934;2022-11-25T14:37:57;4.97;;;1.83;;
4232;SDS011;2130;48.472;11.934;2022-11-25T14:40:27;3.80;;;1.87;;
4232;SDS011;2130;48.472;11.934;2022-11-25T14:43:00;2.20;;;1.47;;
4232;SDS011;2130;48.472;11.934;2022-11-25T14:45:33;1.70;;;1.40;;
4232;SDS011;2130;48.472;11.934;2022-11-25T14:50:54;1.80;;;1.50;;
4232;SDS011;2130;48.472;11.934;2022-11-25T14:53:23;1.90;;;1.30;;
4232;SDS011;2130;48.472;11.934;2022-11-25T14:55:52;1.90;;;1.37;;
4232;SDS011;2130;48.472;11.934;2022-11-25T14:58:20;1.00;;;0.90;;
4232;SDS011;2130;48.472;11.934;2022-11-25T15:00:50;1.43;;;1.20;;
4232;SDS011;2130;48.472;11.934;2022-11-25T15:03:20;1.17;;;1.07;;
4232;SDS011;2130;48.472;11.934;2022-11-25T15:05:52;1.90;;;1.23;;
4232;SDS011;2130;48.472;11.934;2022-11-25T15:08:23;1.67;;;1.37;;
4232;SDS011;2130;48.472;11.934;2022-11-25T15:10:52;2.00;;;1.63;;
4232;SDS011;2130;48.472;11.934;2022-11-25T15:13:23;3.83;;;1.73;;
4232;SDS011;2130;48.472;11.934;2022-11-25T15:15:59;1.50;;;1.40;;
4232;SDS011;2130;48.472;11.934;2022-11-25T15:18:32;1.77;;;1.40;;
4232;SDS011;2130;48.472;11.934;2022-11-25T15:21:01;1.23;;;1.13;;
4232;SDS011;2130;48.472;11.934;2022-11-25T15:26:23;1.17;;;1.07;;
4232;SDS011;2130;48.472;11.934;2022-11-25T15:28:52;2.00;;;1.30;;
4232;SDS011;2130;48.472;11.934;2022-11-25T15:31:24;3.23;;;1.43;;
4232;SDS011;2130;48.472;11.934;2022-11-25T15:33:54;4.40;;;2.10;;
4232;SDS011;2130;48.472;11.934;2022-11-25T15:36:24;2.10;;;1.57;;
4232;SDS011;2130;48.472;11.934;2022-11-25T15:38:52;2.70;;;1.77;;
4232;SDS011;2130;48.472;11.934;2022-11-25T15:41:26;7.30;;;2.93;;
4232;SDS011;2130;48.472;11.934;2022-11-25T15:43:59;4.57;;;2.00;;
4232;SDS011;2130;48.472;11.934;2022-11-25T15:46:31;7.57;;;2.43;;
4232;SDS011;2130;48.472;11.934;2022-11-25T15:49:01;2.30;;;2.00;;
4232;SDS011;2130;48.472;11.934;2022-11-25T15:51:32;5.23;;;2.53;;
4232;SDS011;2130;48.472;11.934;2022-11-25T15:54:04;6.20;;;2.57;;